Detall de PIREP

Printer-friendly versionPDF version

[2013/11/18 17:58:00]
Flight IATA:CT3129
Pilot Number:012
Company ICAO:CAT
Aircraft Type:DC3/A
PAX:0
Aircraft Registration:CARGO
Departing Airport: LEZG
Destination Airport: LEVC
Alternate Airport:LEPA
Online: VATSIM
Route:CMA R29 MANDY
Flight Level:F080
No Slew and time accel
No pause
Crash detect
Detect pilot in Cockpit between each 30 and 45 minutes
17:58 Zero fuel Weight: 20225 Lbs, Fuel Weight: 1331 Lbs
17:58 VATSIM:LEZG 181730Z 30021KT 9999 SCT035 SCT070 10/07 Q1004
17:58 VATSIM:LEVC 181730Z 30010KT 9999 -DZ FEW030 OVC057 12/09 Q1002 NOSIG
17:58 VOICE CATALONIAN
18:01 Parking Brakes off
18:08 Take-off
18:08 Take off Weight: 21524 Lbs
18:08 Wind: 300º @ 021 Knots Heading: 301º
18:08 POS N41º 39´ 28´´ W001º 00´ 50´´
18:08 Gear Up: 098 Knots
18:15 TOC
18:15 Fuel Weight: 1203 Lb
18:23 Wind:000º@025 Knots Heading: 164º Ground Speed: 191 Knots Altitude 7759 ft
18:36 TOD
18:36 Fuel Weight: 964 Lb
18:37 TOC
18:37 Fuel Weight: 959 Lb
18:38 Wind:357º@037 Knots Heading: 165º Ground Speed: 198 Knots Altitude 7719 ft
18:51 TOD
18:51 Fuel Weight: 791 Lb
18:53 Wind:354º@030 Knots Heading: 110º Ground Speed: 185 Knots Altitude 7066 ft
19:08 Wind:354º@030 Knots Heading: 175º Ground Speed: 184 Knots Altitude 5206 ft
19:19 Flaps:1 at 115 Knots
19:19 Flaps:2 at 99 Knots
19:19 Gear Down: 100 Knots
19:20 Flaps:3 at 90 Knots
19:23 Wind:300º@010 Knots Heading: 295º Ground Speed: 071 Knots Altitude 469 ft
19:23 TouchDown:Rate -97 ft/min Speed: 67 Knots
19:24 VATSIM:LEVC 181900Z 28005KT 9999 FEW030 OVC060 11/09 Q1002 NOSIG
19:24 Land
19:24 Wind:300º@011 Knots
19:24 Heading: 298º
19:24 Flight Duration: 01:16
19:24 Landing Weight: 20743 Lbs
19:24 POS N39º 29´ 17´´ W000º 28´ 44´´
19:25 Parking brakes on
19:25 Block to Block Duration: 01:24
19:25 Final Fuel: 511 Lbls
19:25 Spent Fuel: 820 Lbls
19:25 Flight Length: 207 NM
19:25 TOD Land Length: 81 NM

Exportar CSV

Powered by Drupal - Modified by Danger4k